createdAt,value
2019-04-23T00:00:26.499Z,1005.35
2019-04-23T00:01:38.583Z,1005.40
2019-04-23T00:02:30.111Z,1005.37
2019-04-23T00:03:30.563Z,1005.33
2019-04-23T00:04:24.006Z,1005.31
2019-04-23T00:05:35.457Z,1005.30
2019-04-23T00:06:53.857Z,1005.26
2019-04-23T00:07:44.524Z,1005.32
2019-04-23T00:08:37.735Z,1005.23
2019-04-23T00:09:30.383Z,1005.29
2019-04-23T00:10:30.299Z,1005.23
2019-04-23T00:12:40.588Z,1005.25
2019-04-23T00:13:29.326Z,1005.24
2019-04-23T00:14:29.890Z,1005.20
2019-04-23T00:15:23.372Z,1005.24
2019-04-23T00:17:33.477Z,1005.23
2019-04-23T00:19:26.169Z,1005.12
2019-04-23T00:20:25.823Z,1005.10
2019-04-23T00:21:26.641Z,1005.08
2019-04-23T00:22:31.253Z,1005.06
2019-04-23T00:23:28.190Z,1005.09
2019-04-23T00:24:46.666Z,1005.07
2019-04-23T00:26:33.230Z,1005.06
2019-04-23T00:27:35.561Z,1005.12
2019-04-23T00:28:37.402Z,1005.14
2019-04-23T00:29:32.773Z,1005.13
2019-04-23T00:30:41.454Z,1005.11
2019-04-23T00:31:34.991Z,1005.12
2019-04-23T00:32:30.268Z,1005.13
2019-04-23T00:34:37.799Z,1005.13
2019-04-23T00:35:25.867Z,1005.13
2019-04-23T00:36:32.595Z,1005.12
2019-04-23T00:38:33.645Z,1005.12
2019-04-23T00:39:23.709Z,1005.07
2019-04-23T00:40:25.921Z,1005.11
2019-04-23T00:41:33.357Z,1005.08
2019-04-23T00:42:29.598Z,1005.09
2019-04-23T00:43:27.292Z,1005.07
2019-04-23T00:44:37.721Z,1005.07
2019-04-23T00:45:33.304Z,1005.06
2019-04-23T00:46:31.486Z,1005.04
2019-04-23T00:47:33.001Z,1005.04
2019-04-23T00:48:36.401Z,1005.01
2019-04-23T00:49:28.974Z,1005.01
2019-04-23T00:50:30.267Z,1005.03
2019-04-23T00:51:34.680Z,1005.03
2019-04-23T00:52:26.441Z,1005.03
2019-04-23T00:53:37.142Z,1005.03
2019-04-23T00:54:28.819Z,1005.03
2019-04-23T00:55:39.761Z,1005.05
2019-04-23T00:57:34.297Z,1005.02
2019-04-23T00:58:36.657Z,1005.03
2019-04-23T00:59:28.224Z,1004.99
2019-04-23T01:00:33.711Z,1004.96
2019-04-23T01:01:31.942Z,1004.95
2019-04-23T01:02:33.576Z,1004.98
2019-04-23T01:03:21.557Z,1004.92
2019-04-23T01:04:27.452Z,1004.90
2019-04-23T01:06:23.654Z,1004.89
2019-04-23T01:07:24.641Z,1004.90
2019-04-23T01:08:27.926Z,1004.91
2019-04-23T01:09:29.316Z,1004.88
2019-04-23T01:10:29.168Z,1004.89
2019-04-23T01:11:22.848Z,1004.93
2019-04-23T01:12:31.735Z,1004.91
2019-04-23T01:13:36.294Z,1004.88
2019-04-23T01:14:31.590Z,1004.85
2019-04-23T01:15:32.871Z,1004.85
2019-04-23T01:16:22.915Z,1004.84
2019-04-23T01:17:32.247Z,1004.84
2019-04-23T01:19:31.577Z,1004.83
2019-04-23T01:20:28.960Z,1004.86
2019-04-23T01:21:05.734Z,1004.85
2019-04-23T01:22:06.412Z,1004.86
2019-04-23T01:23:05.596Z,1004.83
2019-04-23T01:24:10.277Z,1004.86
2019-04-23T01:25:13.422Z,1004.86
2019-04-23T01:26:23.903Z,1004.85
2019-04-23T01:28:35.554Z,1004.85
2019-04-23T01:29:39.183Z,1004.90
2019-04-23T01:30:31.592Z,1004.85
2019-04-23T01:31:48.006Z,1004.83
2019-04-23T01:32:31.446Z,1004.84
2019-04-23T01:34:34.613Z,1004.83
2019-04-23T01:35:50.996Z,1004.87
2019-04-23T01:37:35.228Z,1004.84
2019-04-23T01:38:35.099Z,1004.81
2019-04-23T01:39:28.019Z,1004.80
2019-04-23T01:40:31.904Z,1004.76
2019-04-23T01:41:33.692Z,1004.79
2019-04-23T01:42:35.705Z,1004.73
2019-04-23T01:43:35.074Z,1004.72
2019-04-23T01:44:38.689Z,1004.69
2019-04-23T01:45:27.285Z,1004.70
2019-04-23T01:46:37.304Z,1004.73
2019-04-23T01:47:35.503Z,1004.70
2019-04-23T01:48:34.259Z,1004.67
2019-04-23T01:49:36.997Z,1004.64
2019-04-23T01:50:50.133Z,1004.68
2019-04-23T01:51:33.876Z,1004.65
2019-04-23T01:53:37.101Z,1004.65
2019-04-23T01:54:30.830Z,1004.67
2019-04-23T01:56:28.452Z,1004.64
2019-04-23T01:57:30.811Z,1004.63
2019-04-23T01:59:31.698Z,1004.60
2019-04-23T02:01:32.825Z,1004.59
2019-04-23T02:02:38.602Z,1004.58
2019-04-23T02:03:49.973Z,1004.59
2019-04-23T02:04:28.656Z,1004.57
2019-04-23T02:06:31.482Z,1004.55
2019-04-23T02:07:39.276Z,1004.54
2019-04-23T02:08:26.166Z,1004.51
2019-04-23T02:09:35.731Z,1004.55
2019-04-23T02:10:42.633Z,1004.52
2019-04-23T02:11:37.381Z,1004.48
2019-04-23T02:12:33.390Z,1004.56
2019-04-23T02:13:38.354Z,1004.50
2019-04-23T02:14:29.059Z,1004.47
2019-04-23T02:15:32.017Z,1004.46
2019-04-23T02:16:33.865Z,1004.43
2019-04-23T02:17:36.338Z,1004.45
2019-04-23T02:18:30.435Z,1004.42
2019-04-23T02:19:29.364Z,1004.44
2019-04-23T02:21:35.229Z,1004.40
2019-04-23T02:22:38.196Z,1004.40
2019-04-23T02:23:32.775Z,1004.40
2019-04-23T02:24:39.622Z,1004.41
2019-04-23T02:26:30.959Z,1004.37
2019-04-23T02:27:36.318Z,1004.35
2019-04-23T02:28:34.093Z,1004.33
2019-04-23T02:32:39.864Z,1004.31
2019-04-23T02:33:44.538Z,1004.31
2019-04-23T02:36:40.520Z,1004.29
2019-04-23T02:38:45.775Z,1004.27
2019-04-23T02:39:46.498Z,1004.27
2019-04-23T02:40:47.125Z,1004.26
2019-04-23T02:41:41.358Z,1004.26
2019-04-23T02:43:00.871Z,1004.26
2019-04-23T02:43:26.042Z,1004.24
2019-04-23T02:44:31.841Z,1004.26
2019-04-23T02:45:43.966Z,1004.24
2019-04-23T02:46:33.536Z,1004.22
2019-04-23T02:48:44.367Z,1004.19
2019-04-23T02:49:54.964Z,1004.19
2019-04-23T02:51:35.148Z,1004.17
2019-04-23T02:54:46.650Z,1004.14
2019-04-23T02:56:49.228Z,1004.14
2019-04-23T02:57:35.591Z,1004.13
2019-04-23T02:58:43.989Z,1004.10
2019-04-23T03:00:04.274Z,1004.10
2019-04-23T03:00:40.017Z,1004.09
2019-04-23T03:03:42.328Z,1004.13
2019-04-23T03:06:38.999Z,1004.06
2019-04-23T03:07:45.922Z,1004.03
2019-04-23T03:08:39.423Z,1004.04
2019-04-23T03:12:37.744Z,1004.01
2019-04-23T03:14:43.736Z,1003.98
2019-04-23T03:15:52.640Z,1003.93
2019-04-23T03:17:36.472Z,1003.94
2019-04-23T03:19:37.989Z,1003.94
2019-04-23T03:20:59.504Z,1003.94
2019-04-23T03:21:44.612Z,1003.89
2019-04-23T03:22:49.502Z,1003.90
2019-04-23T03:23:47.224Z,1003.85
2019-04-23T03:24:44.108Z,1003.86
2019-04-23T03:25:31.315Z,1003.86
2019-04-23T03:36:18.302Z,1003.70
2019-04-23T03:37:00.670Z,1003.67
2019-04-23T03:37:40.764Z,1003.67
2019-04-23T03:39:55.091Z,1003.68
2019-04-23T03:40:27.655Z,1003.67
2019-04-23T03:42:42.639Z,1003.67
2019-04-23T03:44:45.007Z,1003.64
2019-04-23T03:47:32.024Z,1003.60
2019-04-23T03:50:35.400Z,1003.61
2019-04-23T03:51:36.574Z,1003.61
2019-04-23T03:53:43.153Z,1003.63
2019-04-23T03:56:45.230Z,1003.59
2019-04-23T03:58:41.400Z,1003.60
2019-04-23T04:00:37.258Z,1003.57
2019-04-23T04:02:48.498Z,1003.58
2019-04-23T04:04:10.749Z,1003.62
2019-04-23T04:05:42.523Z,1003.62
2019-04-23T04:09:47.966Z,1003.62
2019-04-23T04:10:54.974Z,1003.62
2019-04-23T04:11:25.779Z,1003.66
2019-04-23T04:12:34.889Z,1003.65
2019-04-23T04:14:38.394Z,1003.60
2019-04-23T04:15:51.017Z,1003.63
2019-04-23T04:16:36.512Z,1003.62
2019-04-23T04:18:41.086Z,1003.67
2019-04-23T04:19:47.877Z,1003.62
2019-04-23T04:21:33.798Z,1003.64
2019-04-23T04:22:54.471Z,1003.65
2019-04-23T04:23:43.474Z,1003.64
2019-04-23T04:24:36.946Z,1003.66
2019-04-23T04:26:44.355Z,1003.62
2019-04-23T04:28:38.426Z,1003.64
2019-04-23T04:30:38.448Z,1003.64
2019-04-23T04:31:42.484Z,1003.59
2019-04-23T04:32:36.625Z,1003.59
2019-04-23T04:35:27.352Z,1003.57
2019-04-23T04:36:45.850Z,1003.57
2019-04-23T04:37:56.367Z,1003.53
2019-04-23T04:38:40.573Z,1003.52
2019-04-23T04:39:35.190Z,1003.58
2019-04-23T04:41:31.190Z,1003.57
2019-04-23T04:42:59.181Z,1003.59
2019-04-23T04:45:45.134Z,1003.67
2019-04-23T04:48:40.284Z,1003.65
2019-04-23T04:49:42.584Z,1003.67
2019-04-23T04:50:31.358Z,1003.64
2019-04-23T04:51:37.661Z,1003.61
2019-04-23T04:52:41.183Z,1003.56
2019-04-23T04:54:23.062Z,1003.55
2019-04-23T04:55:36.272Z,1003.61
2019-04-23T04:57:36.507Z,1003.55
2019-04-23T04:58:43.404Z,1003.52
2019-04-23T04:59:40.033Z,1003.52
2019-04-23T05:00:44.036Z,1003.52
2019-04-23T05:01:30.216Z,1003.54
2019-04-23T05:03:26.957Z,1003.57
2019-04-23T05:04:37.901Z,1003.57
2019-04-23T05:06:39.399Z,1003.53
2019-04-23T05:07:34.065Z,1003.55
2019-04-23T05:09:43.823Z,1003.55
2019-04-23T05:10:43.256Z,1003.58
2019-04-23T05:11:38.651Z,1003.56
2019-04-23T05:12:34.925Z,1003.56
2019-04-23T05:13:41.172Z,1003.55
2019-04-23T05:14:35.390Z,1003.60
2019-04-23T05:15:35.518Z,1003.52
2019-04-23T05:16:37.070Z,1003.53
2019-04-23T05:17:32.501Z,1003.49
2019-04-23T05:18:34.660Z,1003.47
2019-04-23T05:22:33.703Z,1003.54
2019-04-23T05:23:28.122Z,1003.59
2019-04-23T05:24:31.719Z,1003.67
2019-04-23T05:25:25.483Z,1003.79
2019-04-23T05:26:29.252Z,1003.85
2019-04-23T05:27:28.346Z,1003.87
2019-04-23T05:28:29.955Z,1003.85
2019-04-23T05:29:19.984Z,1003.84
2019-04-23T05:30:36.368Z,1003.85
2019-04-23T05:31:23.167Z,1003.84
2019-04-23T05:32:26.465Z,1003.83
2019-04-23T05:34:24.276Z,1003.89
2019-04-23T05:37:33.489Z,1003.86
2019-04-23T05:38:35.925Z,1003.85
2019-04-23T05:39:32.003Z,1003.89
2019-04-23T05:40:37.121Z,1003.90
2019-04-23T05:42:26.079Z,1003.84
2019-04-23T05:43:27.912Z,1003.91
2019-04-23T05:44:33.799Z,1003.86
2019-04-23T05:45:30.081Z,1003.75
2019-04-23T05:47:27.362Z,1003.87
2019-04-23T05:48:23.439Z,1003.88
2019-04-23T05:49:24.785Z,1003.90
2019-04-23T05:50:39.233Z,1004.03
2019-04-23T05:51:31.138Z,1004.10
2019-04-23T05:52:31.275Z,1004.06
2019-04-23T05:53:27.014Z,1003.98
2019-04-23T05:54:26.584Z,1003.70
2019-04-23T05:55:32.343Z,1003.77
2019-04-23T05:56:30.811Z,1003.83
2019-04-23T05:57:20.059Z,1003.85
2019-04-23T05:58:30.078Z,1004.15
2019-04-23T05:59:24.710Z,1004.25
2019-04-23T06:00:34.427Z,1003.74
2019-04-23T06:02:26.585Z,1003.43
2019-04-23T06:03:42.068Z,1003.88
2019-04-23T06:05:25.022Z,1003.85
2019-04-23T06:06:52.417Z,1003.61
2019-04-23T06:07:42.261Z,1003.63
2019-04-23T06:08:38.474Z,1003.55
2019-04-23T06:09:26.460Z,1003.62
2019-04-23T06:10:27.218Z,1003.62
2019-04-23T06:11:37.072Z,1003.83
2019-04-23T06:12:26.984Z,1004.17
2019-04-23T06:13:26.040Z,1004.18
2019-04-23T06:14:28.460Z,1004.03
2019-04-23T06:15:29.022Z,1003.94
2019-04-23T06:16:32.766Z,1004.09
2019-04-23T06:17:43.083Z,1004.25
2019-04-23T06:18:30.503Z,1004.18
2019-04-23T06:19:21.309Z,1003.98
2019-04-23T06:20:28.207Z,1003.92
2019-04-23T06:21:34.241Z,1003.90
2019-04-23T06:22:28.977Z,1003.93
2019-04-23T06:23:36.554Z,1004.03
2019-04-23T06:24:28.415Z,1004.02
2019-04-23T06:25:39.999Z,1003.94
2019-04-23T06:27:27.430Z,1003.75
2019-04-23T06:28:27.752Z,1003.88
2019-04-23T06:29:37.635Z,1003.80
2019-04-23T06:30:35.294Z,1003.64
2019-04-23T06:31:31.205Z,1003.62
2019-04-23T06:32:25.856Z,1003.62
2019-04-23T06:33:25.962Z,1003.64
2019-04-23T06:35:47.079Z,1003.54
2019-04-23T06:36:25.661Z,1003.63
2019-04-23T06:37:25.805Z,1003.67
2019-04-23T06:39:28.548Z,1003.36
2019-04-23T06:40:27.715Z,1003.38
2019-04-23T06:41:34.513Z,1003.49
2019-04-23T06:42:30.762Z,1003.60
2019-04-23T06:43:24.328Z,1003.62
2019-04-23T06:44:25.617Z,1003.54
2019-04-23T06:45:26.051Z,1003.51
2019-04-23T06:46:33.666Z,1003.48
2019-04-23T06:47:36.107Z,1003.44
2019-04-23T06:48:32.094Z,1003.43
2019-04-23T06:49:30.492Z,1003.38
2019-04-23T06:50:27.174Z,1003.45
2019-04-23T06:51:28.226Z,1003.47
2019-04-23T06:53:21.470Z,1003.29
2019-04-23T06:54:25.697Z,1003.16
2019-04-23T06:55:33.809Z,1003.25
2019-04-23T06:56:26.916Z,1003.23
2019-04-23T06:57:22.326Z,1003.21
2019-04-23T06:58:32.385Z,1003.30
2019-04-23T06:59:29.342Z,1003.34
2019-04-23T07:00:27.885Z,1003.50
2019-04-23T07:01:30.196Z,1003.54
2019-04-23T07:02:30.608Z,1003.48
2019-04-23T07:03:35.899Z,1003.52
2019-04-23T07:04:29.021Z,1003.46
2019-04-23T07:05:27.627Z,1003.50
2019-04-23T07:07:44.959Z,1003.47
2019-04-23T07:08:39.918Z,1003.41
2019-04-23T07:09:22.671Z,1003.37
2019-04-23T07:10:28.346Z,1003.37
2019-04-23T07:11:28.656Z,1003.33
2019-04-23T07:12:35.121Z,1003.32
2019-04-23T07:13:34.600Z,1003.32
2019-04-23T07:14:30.803Z,1003.37
2019-04-23T07:15:38.045Z,1003.34
2019-04-23T07:16:21.561Z,1003.35
2019-04-23T07:17:21.339Z,1003.20
2019-04-23T07:18:27.708Z,1003.15
2019-04-23T07:20:28.675Z,1003.21
2019-04-23T07:21:22.005Z,1003.14
2019-04-23T07:22:21.692Z,1003.28
2019-04-23T07:23:29.977Z,1003.27
2019-04-23T07:24:21.523Z,1003.12
2019-04-23T07:25:29.551Z,1003.16
2019-04-23T07:27:37.851Z,1003.15
2019-04-23T07:28:29.002Z,1003.28
2019-04-23T07:29:27.180Z,1003.22
2019-04-23T07:30:38.352Z,1003.25
2019-04-23T07:31:44.551Z,1003.34
2019-04-23T07:32:29.115Z,1003.26
2019-04-23T07:33:27.905Z,1003.29
2019-04-23T07:34:25.811Z,1003.34
2019-04-23T07:35:24.496Z,1003.31
2019-04-23T07:36:32.411Z,1003.28
2019-04-23T07:37:22.275Z,1003.42
2019-04-23T07:38:32.764Z,1003.32
2019-04-23T07:41:32.231Z,1003.26
2019-04-23T07:43:24.981Z,1003.11
2019-04-23T07:44:35.731Z,1003.06
2019-04-23T07:47:40.116Z,1002.98
2019-04-23T07:48:34.193Z,1003.06
2019-04-23T07:49:23.433Z,1003.15
2019-04-23T07:50:38.183Z,1002.96
2019-04-23T07:51:27.718Z,1002.84
2019-04-23T07:52:41.103Z,1002.85
2019-04-23T07:53:22.958Z,1002.87
2019-04-23T07:56:24.104Z,1002.99
2019-04-23T07:58:23.447Z,1002.99
2019-04-23T07:59:25.299Z,1002.96
2019-04-23T08:00:34.458Z,1002.89
2019-04-23T08:01:18.344Z,1002.83
2019-04-23T08:02:28.900Z,1002.84
2019-04-23T08:03:21.055Z,1002.89
2019-04-23T08:04:31.744Z,1002.88
2019-04-23T08:05:32.007Z,1002.79
2019-04-23T08:06:21.760Z,1002.87
2019-04-23T08:07:28.271Z,1002.82
2019-04-23T08:08:28.642Z,1002.82
2019-04-23T08:09:25.567Z,1002.82
2019-04-23T08:10:31.765Z,1002.82
2019-04-23T08:11:34.344Z,1002.82
2019-04-23T08:12:32.019Z,1002.81
2019-04-23T08:13:37.936Z,1002.85
2019-04-23T08:14:26.421Z,1002.90
2019-04-23T08:15:30.954Z,1002.82
2019-04-23T08:17:26.205Z,1002.73
2019-04-23T08:18:29.284Z,1002.74
2019-04-23T08:19:35.234Z,1002.75
2019-04-23T08:20:23.037Z,1002.70
2019-04-23T08:22:28.792Z,1002.68
2019-04-23T08:23:25.643Z,1002.67
2019-04-23T08:24:16.788Z,1002.66
2019-04-23T08:25:27.254Z,1002.60
2019-04-23T08:26:38.029Z,1002.62
2019-04-23T08:27:22.673Z,1002.63
2019-04-23T08:28:38.192Z,1002.64
2019-04-23T08:29:19.947Z,1002.55
2019-04-23T08:30:17.369Z,1002.57
2019-04-23T08:31:32.075Z,1002.60
2019-04-23T08:32:19.035Z,1002.57
2019-04-23T08:33:24.854Z,1002.58
2019-04-23T08:34:32.501Z,1002.56
2019-04-23T08:35:19.962Z,1002.55
2019-04-23T08:36:29.443Z,1002.58
2019-04-23T08:37:36.450Z,1002.53
2019-04-23T08:39:28.672Z,1002.41
2019-04-23T08:41:26.961Z,1002.40
2019-04-23T08:42:39.632Z,1002.41
2019-04-23T08:44:27.394Z,1002.44
2019-04-23T08:46:33.044Z,1002.48
2019-04-23T08:47:23.250Z,1002.43
2019-04-23T08:49:29.573Z,1002.48
2019-04-23T08:50:27.545Z,1002.42
2019-04-23T08:51:38.899Z,1002.42
2019-04-23T08:52:37.005Z,1002.47
2019-04-23T08:53:37.572Z,1002.48
2019-04-23T08:54:37.001Z,1002.37
2019-04-23T08:56:38.650Z,1002.39
2019-04-23T08:57:22.691Z,1002.36
2019-04-23T08:58:38.060Z,1002.39
2019-04-23T08:59:33.069Z,1002.37
2019-04-23T09:00:24.765Z,1002.33
2019-04-23T09:01:27.553Z,1002.37
2019-04-23T09:02:35.964Z,1002.37
2019-04-23T09:04:23.637Z,1002.43
2019-04-23T09:05:34.247Z,1002.42
2019-04-23T09:06:21.687Z,1002.42
2019-04-23T09:07:28.071Z,1002.30
2019-04-23T09:08:29.506Z,1002.33
2019-04-23T09:09:27.486Z,1002.37
2019-04-23T09:10:28.233Z,1002.39
2019-04-23T09:11:38.560Z,1002.53
2019-04-23T09:12:32.092Z,1002.63
2019-04-23T09:14:20.556Z,1002.67
2019-04-23T09:15:31.595Z,1002.58
2019-04-23T09:16:24.624Z,1002.69
2019-04-23T09:17:28.507Z,1002.69
2019-04-23T09:18:26.195Z,1002.70
2019-04-23T09:19:41.322Z,1002.73
2019-04-23T09:20:34.284Z,1002.66
2019-04-23T09:21:21.368Z,1002.62
2019-04-23T09:23:28.354Z,1002.65
2019-04-23T09:24:29.534Z,1002.61
2019-04-23T09:25:29.976Z,1002.82
2019-04-23T09:26:22.287Z,1002.80
2019-04-23T09:27:31.601Z,1002.69
2019-04-23T09:28:34.527Z,1002.81
2019-04-23T09:29:30.642Z,1002.70
2019-04-23T09:31:56.478Z,1002.70
2019-04-23T09:33:32.513Z,1002.65
2019-04-23T09:34:31.284Z,1002.66
2019-04-23T09:35:27.837Z,1002.64
2019-04-23T09:36:27.478Z,1002.62
2019-04-23T09:37:40.545Z,1002.57
2019-04-23T09:38:39.651Z,1002.45
2019-04-23T09:40:32.149Z,1002.27
2019-04-23T09:42:32.281Z,1002.11
2019-04-23T09:44:50.784Z,1002.24
2019-04-23T09:45:35.802Z,1002.24
2019-04-23T09:46:24.344Z,1002.27
2019-04-23T09:48:17.755Z,1002.29
2019-04-23T09:49:29.128Z,1002.23
2019-04-23T09:51:27.335Z,1002.20
2019-04-23T09:53:27.912Z,1002.14
2019-04-23T09:54:37.822Z,1002.10
2019-04-23T09:55:32.735Z,1001.98
2019-04-23T09:56:22.383Z,1002.00
2019-04-23T09:57:17.105Z,1001.99
2019-04-23T09:58:18.140Z,1002.00
2019-04-23T10:00:31.424Z,1001.98
2019-04-23T10:01:27.844Z,1001.93
2019-04-23T10:02:20.236Z,1001.89
2019-04-23T10:03:10.675Z,1001.84
2019-04-23T10:04:07.431Z,1001.86
2019-04-23T10:05:11.090Z,1001.84
2019-04-23T10:06:04.287Z,1001.71
2019-04-23T10:07:11.268Z,1001.69
2019-04-23T10:08:06.635Z,1001.56
2019-04-23T10:09:01.437Z,1001.61
2019-04-23T10:09:57.379Z,1001.51
2019-04-23T10:10:57.481Z,1001.69
2019-04-23T10:11:56.404Z,1001.60
2019-04-23T10:12:57.992Z,1001.52
2019-04-23T10:13:56.672Z,1001.54
2019-04-23T10:15:05.704Z,1001.48
2019-04-23T10:15:58.053Z,1001.51
2019-04-23T10:16:57.937Z,1001.44
2019-04-23T10:17:56.454Z,1001.36
2019-04-23T10:18:57.442Z,1001.42
2019-04-23T10:19:56.338Z,1001.30
2019-04-23T10:20:56.562Z,1001.41
2019-04-23T10:21:57.505Z,1001.34
2019-04-23T10:22:56.732Z,1001.35
2019-04-23T10:23:57.121Z,1001.30
2019-04-23T10:24:57.137Z,1001.30
2019-04-23T10:25:56.419Z,1001.34
2019-04-23T10:26:57.727Z,1001.32
2019-04-23T10:28:01.188Z,1001.27
2019-04-23T10:28:56.623Z,1001.17
2019-04-23T10:29:56.265Z,1001.28
2019-04-23T10:30:56.584Z,1001.24
2019-04-23T10:31:57.598Z,1001.28
2019-04-23T10:32:57.746Z,1001.24
2019-04-23T10:33:57.793Z,1001.19
2019-04-23T10:35:06.699Z,1001.20
2019-04-23T10:36:02.637Z,1001.23
2019-04-23T10:36:57.539Z,1001.17
2019-04-23T10:38:03.669Z,1001.13
2019-04-23T10:39:04.936Z,1001.12
2019-04-23T10:39:59.219Z,1001.19
2019-04-23T10:40:56.289Z,1001.16
2019-04-23T10:41:57.614Z,1001.16
2019-04-23T10:42:57.695Z,1001.15
2019-04-23T10:43:56.688Z,1001.21
2019-04-23T10:45:10.831Z,1001.21
2019-04-23T10:46:15.436Z,1001.21
2019-04-23T10:47:27.138Z,1001.29
2019-04-23T10:48:32.735Z,1001.29
2019-04-23T10:49:50.861Z,1001.22
2019-04-23T10:50:27.352Z,1001.23
2019-04-23T10:51:30.528Z,1001.21
2019-04-23T10:52:53.612Z,1001.18
2019-04-23T10:53:39.935Z,1001.22
2019-04-23T10:54:34.286Z,1001.22
2019-04-23T10:55:25.949Z,1001.24
2019-04-23T10:56:27.228Z,1001.23
2019-04-23T10:57:22.607Z,1001.26
2019-04-23T10:58:22.876Z,1001.26
2019-04-23T10:59:34.194Z,1001.16
2019-04-23T11:00:23.845Z,1001.19
2019-04-23T11:01:37.233Z,1001.20
2019-04-23T11:03:45.284Z,1001.19
2019-04-23T11:04:44.760Z,1001.21
2019-04-23T11:05:29.195Z,1001.21
2019-04-23T11:06:32.525Z,1001.16
2019-04-23T11:07:30.792Z,1001.22
2019-04-23T11:08:23.953Z,1001.20
2019-04-23T11:09:44.447Z,1001.19
2019-04-23T11:10:22.046Z,1001.28
2019-04-23T11:11:27.609Z,1001.25
2019-04-23T11:12:37.095Z,1001.25
2019-04-23T11:13:40.914Z,1001.30
2019-04-23T11:14:25.368Z,1001.24
2019-04-23T11:15:38.391Z,1001.31
2019-04-23T11:16:46.028Z,1001.28
2019-04-23T11:17:35.514Z,1001.24
2019-04-23T11:18:34.407Z,1001.30
2019-04-23T11:19:34.637Z,1001.29
2019-04-23T11:20:30.252Z,1001.27
2019-04-23T11:21:28.241Z,1001.23
2019-04-23T11:22:42.681Z,1001.26
2019-04-23T11:23:22.420Z,1001.20
2019-04-23T11:24:41.969Z,1001.20
2019-04-23T11:26:31.879Z,1001.20
2019-04-23T11:27:32.675Z,1001.17
2019-04-23T11:28:25.732Z,1001.14
2019-04-23T11:29:34.367Z,1001.16
2019-04-23T11:30:36.474Z,1001.15
2019-04-23T11:31:33.330Z,1001.19
2019-04-23T11:33:19.902Z,1001.16
2019-04-23T11:35:31.181Z,1001.19
2019-04-23T11:37:39.250Z,1001.08
2019-04-23T11:39:32.554Z,1001.08
2019-04-23T11:41:45.673Z,1001.01
2019-04-23T11:42:33.164Z,1000.98
2019-04-23T11:44:28.832Z,1000.95
2019-04-23T11:44:56.470Z,1001.00
2019-04-23T11:45:36.754Z,1000.98
2019-04-23T11:46:41.209Z,1001.03
2019-04-23T11:48:02.381Z,1001.03
2019-04-23T11:50:39.674Z,1001.13
2019-04-23T11:53:27.811Z,1001.15
2019-04-23T11:54:24.152Z,1001.09
2019-04-23T11:56:51.558Z,1001.05
2019-04-23T11:59:31.299Z,1001.13
2019-04-23T12:00:33.700Z,1001.11
2019-04-23T12:01:42.205Z,1001.08
2019-04-23T12:02:26.840Z,1001.07
2019-04-23T12:03:17.793Z,1001.09
2019-04-23T12:04:28.786Z,1001.06
2019-04-23T12:05:41.318Z,1001.11
2019-04-23T12:06:23.615Z,1001.05
2019-04-23T12:07:22.918Z,1001.04
2019-04-23T12:08:36.744Z,1001.08
2019-04-23T12:09:34.961Z,1001.04
2019-04-23T12:10:29.108Z,1001.08
2019-04-23T12:11:52.336Z,1001.04
2019-04-23T12:12:28.027Z,1000.99
2019-04-23T12:13:30.167Z,1000.99
2019-04-23T12:14:35.142Z,1000.97
2019-04-23T12:15:37.931Z,1000.85
2019-04-23T12:16:34.365Z,1000.78
2019-04-23T12:18:38.736Z,1000.92
2019-04-23T12:20:28.649Z,1000.86
2019-04-23T12:21:29.912Z,1000.87
2019-04-23T12:23:31.701Z,1000.80
2019-04-23T12:24:42.055Z,1000.82
2019-04-23T12:26:35.542Z,1000.79
2019-04-23T12:28:30.150Z,1000.72
2019-04-23T12:29:31.920Z,1000.68
2019-04-23T12:30:42.091Z,1000.69
2019-04-23T12:31:26.443Z,1000.55
2019-04-23T12:33:31.729Z,1000.54
2019-04-23T12:34:28.418Z,1000.54
2019-04-23T12:36:30.552Z,1000.54
2019-04-23T12:37:33.491Z,1000.52
2019-04-23T12:38:21.892Z,1000.47
2019-04-23T12:39:27.082Z,1000.47
2019-04-23T12:41:21.150Z,1000.35
2019-04-23T12:42:43.568Z,1000.38
2019-04-23T12:43:19.025Z,1000.38
2019-04-23T12:44:25.464Z,1000.37
2019-04-23T12:46:26.440Z,1000.37
2019-04-23T12:47:37.701Z,1000.32
2019-04-23T12:49:49.039Z,1000.24
2019-04-23T12:51:38.500Z,1000.26
2019-04-23T12:52:25.293Z,1000.28
2019-04-23T12:53:36.195Z,1000.33
2019-04-23T12:54:35.641Z,1000.36
2019-04-23T12:56:34.464Z,1000.32
2019-04-23T12:57:28.735Z,1000.29
2019-04-23T12:58:26.258Z,1000.26
2019-04-23T12:59:23.242Z,1000.25
2019-04-23T13:00:29.039Z,1000.32
2019-04-23T13:01:25.689Z,1000.36
2019-04-23T13:02:33.107Z,1000.34
2019-04-23T13:03:25.419Z,1000.30
2019-04-23T13:04:26.159Z,1000.28
2019-04-23T13:05:31.743Z,1000.29
2019-04-23T13:06:23.657Z,1000.22
2019-04-23T13:07:36.792Z,1000.20
2019-04-23T13:09:35.036Z,1000.21
2019-04-23T13:10:36.712Z,1000.17
2019-04-23T13:11:30.085Z,1000.10
2019-04-23T13:12:38.190Z,1000.07
2019-04-23T13:13:35.191Z,1000.04
2019-04-23T13:14:25.215Z,1000.00
2019-04-23T13:15:22.751Z,1000.10
2019-04-23T13:16:33.016Z,1000.16
2019-04-23T13:17:29.704Z,1000.24
2019-04-23T13:18:23.600Z,1000.31
2019-04-23T13:19:37.383Z,1000.34
2019-04-23T13:20:23.551Z,1000.32
2019-04-23T13:21:45.006Z,1000.14
2019-04-23T13:22:31.844Z,999.96
2019-04-23T13:23:22.156Z,999.93
2019-04-23T13:24:27.513Z,999.84
2019-04-23T13:25:33.263Z,999.86
2019-04-23T13:26:08.986Z,999.80
2019-04-23T13:27:29.035Z,999.83
2019-04-23T13:28:24.545Z,999.74
2019-04-23T13:29:34.450Z,999.73
2019-04-23T13:30:32.569Z,999.74
2019-04-23T13:31:18.108Z,999.77
2019-04-23T13:32:50.277Z,999.75
2019-04-23T13:34:23.296Z,999.81
2019-04-23T13:35:43.607Z,999.77
2019-04-23T13:36:23.321Z,999.70
2019-04-23T13:37:33.645Z,999.71
2019-04-23T13:39:24.469Z,999.65
2019-04-23T13:40:37.395Z,999.62
2019-04-23T13:41:28.954Z,999.62
2019-04-23T13:42:33.705Z,999.57
2019-04-23T13:43:30.190Z,999.60
2019-04-23T13:44:29.326Z,999.61
2019-04-23T13:45:47.482Z,999.56
2019-04-23T13:46:17.829Z,999.65
2019-04-23T13:47:43.430Z,999.56
2019-04-23T13:48:16.696Z,999.53
2019-04-23T13:49:26.092Z,999.60
2019-04-23T13:50:37.502Z,999.51
2019-04-23T13:52:49.438Z,999.53
2019-04-23T13:53:38.403Z,999.52
2019-04-23T13:54:42.042Z,999.56
2019-04-23T13:55:16.550Z,999.57
2019-04-23T13:56:25.242Z,999.57
2019-04-23T13:58:23.303Z,999.56
2019-04-23T13:59:30.538Z,999.57
2019-04-23T14:00:42.260Z,999.52
2019-04-23T14:01:30.910Z,999.52
2019-04-23T14:02:34.448Z,999.50
2019-04-23T14:03:30.743Z,999.45
2019-04-23T14:04:32.445Z,999.55
2019-04-23T14:05:35.799Z,999.51
2019-04-23T14:06:43.440Z,999.44
2019-04-23T14:07:30.334Z,999.46
2019-04-23T14:08:33.530Z,999.39
2019-04-23T14:09:34.352Z,999.40
2019-04-23T14:10:29.908Z,999.36
2019-04-23T14:12:22.603Z,999.36
2019-04-23T14:13:37.079Z,999.34
2019-04-23T14:14:34.528Z,999.38
2019-04-23T14:15:36.302Z,999.39
2019-04-23T14:16:29.695Z,999.36
2019-04-23T14:17:47.062Z,999.35
2019-04-23T14:19:16.269Z,999.37
2019-04-23T14:20:21.827Z,999.35
2019-04-23T14:22:43.502Z,999.32
2019-04-23T14:23:39.642Z,999.32
2019-04-23T14:24:50.713Z,999.32
2019-04-23T14:25:18.751Z,999.27
2019-04-23T14:28:30.791Z,999.27
2019-04-23T14:29:21.578Z,999.28
2019-04-23T14:30:29.961Z,999.21
2019-04-23T14:31:17.474Z,999.22
2019-04-23T14:32:23.235Z,999.25
2019-04-23T14:33:26.698Z,999.24
2019-04-23T14:34:17.817Z,999.20
2019-04-23T14:35:25.736Z,999.20
2019-04-23T14:36:26.997Z,999.15
2019-04-23T14:40:26.443Z,999.12
2019-04-23T14:41:23.632Z,999.13
2019-04-23T14:42:24.732Z,999.06
2019-04-23T14:43:25.700Z,999.11
2019-04-23T14:44:20.191Z,999.07
2019-04-23T14:45:42.638Z,999.09
2019-04-23T14:47:40.231Z,999.08
2019-04-23T14:48:39.154Z,999.11
2019-04-23T14:49:19.260Z,999.05
2019-04-23T14:50:31.991Z,999.08
2019-04-23T14:52:45.915Z,999.08
2019-04-23T14:54:35.993Z,999.06
2019-04-23T14:56:23.950Z,999.01
2019-04-23T14:57:35.104Z,998.97
2019-04-23T14:58:36.059Z,999.04
2019-04-23T14:59:32.198Z,998.97
2019-04-23T15:00:31.499Z,998.98